Details From SBVT - Goiabeiras
To SBSV - Salvador Bahia Deputado Luis Eduardo M
Flight Number -
Tags Generated
Created
Modified
Stats Distance 457 nm / 846 km
Max Altitude 0 ft / 0 m
Waypoints 5
Social Downloads 9
Likes 0
Share VATSIM

Download

Looking for another format? Having issues loading an existing format? Contact us
Advertisement - Login to hide

Notes

Generated

Route

SBVT EUDES SGR SVD28 SBSV

ID Type Via Altitude Latitude Longitude Leg Dist Tot Dist Heading (true) Name
O SBVT APT - 0 ft / 0 m -20.26234˚ -40.29332˚ - 0 nm - Goiabeiras
EUDES FIX - 0 ft / 0 m -18.26900˚ -39.49767˚ 127 nm 127 nm 21° / 21° -
SGR NDB - 0 ft / 0 m -16.44167˚ -39.08250˚ 112 nm 240 nm 12° / 12° PORTO SEGURO NDB
SVD28 FIX - 0 ft / 0 m -13.06386˚ -38.37938˚ 206 nm 447 nm 11° / 11° -
O SBSV APT - 0 ft / 0 m -12.90821˚ -38.34316˚ 9 nm 456 nm 13° / 13° -

Altitude Profile

Advertisement - Login to hide

Weather


0- 5 10 15 20 25 30 35+ Temperature / ° C

Clouds and Precipitation
Forecast for 2018-05-24 00:00 UTC. Updated 5 hours ago

Ground ~20,000 ft ~40,000 ft Winds

SBVT

Details ICAO SBVT (VIX)
Name Goiabeiras
Region Brazil
Timezone America/Sao_Paulo (UTC-3.0)
Stats Elevation 11 ft / 3 m (AMSL)
Location -20.255611° -40.288893°
Runways 1
Magnetic Variation 23.829° W

METAR

SBVT 240300Z 33002KT 9999 FEW025 20/19 Q1022

Decode

TAF

TAF SBVT 232200Z 2400/2424 32004KT 9999 SCT025 TN18/2402Z TX27/2416Z BECMG 2413/2415 13008KT RMK PEA

Decode

Departure Runways

ID Width Length Bearing (true) Bearing (mag) Surface Threshold Offset Overrun Length
05 148 ft / 45 m 5,769 ft / 1,759 m 31.71° 55.54° Asphalt 0 ft / 0 m 189 ft / 58 m
23 148 ft / 45 m 5,769 ft / 1,759 m 211.71° 235.54° Asphalt 0 ft / 0 m 189 ft / 58 m

SBSV

Details ICAO SBSV (SSA)
Name Salvador Bahia Deputado Luis Eduardo M
Region Brazil
Timezone America/Bahia (UTC-3.0)
Stats Elevation 64 ft / 20 m (AMSL)
Location -12.910994° -38.331043°
Runways 2
Magnetic Variation 23.445° W

METAR

SBSV 240400Z 11008KT 9999 FEW020 27/22 Q1018

Decode

TAF

TAF SBSV 232200Z 2400/2424 12007KT 8000 SCT020 TN25/2408Z TX30/2415Z TEMPO 2410/2412 5000 SHRA BKN020 FEW022TCU RMK PEA

Decode

Destination Runways

ID Width Length Bearing (true) Bearing (mag) Surface Threshold Offset Overrun Length
10 148 ft / 45 m 9,845 ft / 3,001 m 78.32° 101.77° Asphalt 0 ft / 0 m 205 ft / 62 m
17 148 ft / 45 m 5,014 ft / 1,528 m 144.04° 167.49° Asphalt 0 ft / 0 m 0 ft / 0 m
28 148 ft / 45 m 9,845 ft / 3,001 m 258.31° 281.76° Asphalt 0 ft / 0 m 205 ft / 62 m
35 148 ft / 45 m 5,014 ft / 1,528 m 324.04° 347.49° Asphalt 0 ft / 0 m 0 ft / 0 m

Approach Navaids

Runway Type Ident Frequency Range Bearing (true) Bearing (mag) Slope Elevation
10 Localiser ISV 109.30 MHz 18 nm / 33 km 78.41° 101.85° - 29 ft / 9 m (AMSL)
10 Glidescope ISV 109.30 MHz 10 nm / 19 km 78.32° 101.76° 2.88° 29 ft / 9 m (AMSL)

Popular Alternatives